sensor_id;sensor_type;location;lat;lon;timestamp;temperature;humidity
21282;DHT22;10800;53.096;18.328;2023-05-14T00:02:20;11.20;99.90
21282;DHT22;10800;53.096;18.328;2023-05-14T00:07:26;11.10;99.90
21282;DHT22;10800;53.096;18.328;2023-05-14T00:12:32;11.00;99.90
21282;DHT22;10800;53.096;18.328;2023-05-14T00:17:38;10.80;99.90
21282;DHT22;10800;53.096;18.328;2023-05-14T00:22:43;10.60;99.90
21282;DHT22;10800;53.096;18.328;2023-05-14T00:27:48;10.50;99.90
21282;DHT22;10800;53.096;18.328;2023-05-14T00:32:54;10.40;99.90
21282;DHT22;10800;53.096;18.328;2023-05-14T00:37:59;10.30;99.90
21282;DHT22;10800;53.096;18.328;2023-05-14T00:43:04;10.30;99.90
21282;DHT22;10800;53.096;18.328;2023-05-14T00:48:10;10.20;99.90
21282;DHT22;10800;53.096;18.328;2023-05-14T00:53:17;10.20;99.90
21282;DHT22;10800;53.096;18.328;2023-05-14T00:58:23;10.10;99.90
21282;DHT22;10800;53.096;18.328;2023-05-14T01:03:32;10.00;99.90
21282;DHT22;10800;53.096;18.328;2023-05-14T01:14:05;9.70;99.90
21282;DHT22;10800;53.096;18.328;2023-05-14T01:19:06;9.70;99.90
21282;DHT22;10800;53.096;18.328;2023-05-14T01:29:59;9.50;99.90
21282;DHT22;10800;53.096;18.328;2023-05-14T01:35:06;9.40;99.90
21282;DHT22;10800;53.096;18.328;2023-05-14T01:40:12;9.30;99.90
21282;DHT22;10800;53.096;18.328;2023-05-14T01:45:22;9.30;99.90
21282;DHT22;10800;53.096;18.328;2023-05-14T01:50:30;9.20;99.90
21282;DHT22;10800;53.096;18.328;2023-05-14T01:55:35;9.00;99.90
21282;DHT22;10800;53.096;18.328;2023-05-14T02:00:40;9.00;99.90
21282;DHT22;10800;53.096;18.328;2023-05-14T02:05:45;8.90;99.90
21282;DHT22;10800;53.096;18.328;2023-05-14T02:10:51;8.80;99.90
21282;DHT22;10800;53.096;18.328;2023-05-14T02:15:56;8.70;99.90
21282;DHT22;10800;53.096;18.328;2023-05-14T02:21:01;8.70;99.90
21282;DHT22;10800;53.096;18.328;2023-05-14T02:26:07;8.60;99.90
21282;DHT22;10800;53.096;18.328;2023-05-14T02:31:13;8.50;99.90
21282;DHT22;10800;53.096;18.328;2023-05-14T02:36:18;8.50;99.90
21282;DHT22;10800;53.096;18.328;2023-05-14T02:41:24;8.40;99.90
21282;DHT22;10800;53.096;18.328;2023-05-14T02:46:30;8.40;99.90
21282;DHT22;10800;53.096;18.328;2023-05-14T02:51:36;8.30;99.90
21282;DHT22;10800;53.096;18.328;2023-05-14T02:56:41;8.20;99.90
21282;DHT22;10800;53.096;18.328;2023-05-14T03:01:46;8.20;99.90
21282;DHT22;10800;53.096;18.328;2023-05-14T03:06:52;8.30;99.90
21282;DHT22;10800;53.096;18.328;2023-05-14T03:11:57;8.30;99.90
21282;DHT22;10800;53.096;18.328;2023-05-14T03:17:02;8.30;99.90
21282;DHT22;10800;53.096;18.328;2023-05-14T03:22:08;8.20;99.90
21282;DHT22;10800;53.096;18.328;2023-05-14T03:27:13;8.20;99.90
21282;DHT22;10800;53.096;18.328;2023-05-14T03:32:18;8.20;99.90
21282;DHT22;10800;53.096;18.328;2023-05-14T03:37:24;8.20;99.90
21282;DHT22;10800;53.096;18.328;2023-05-14T03:42:29;8.10;99.90
21282;DHT22;10800;53.096;18.328;2023-05-14T03:47:35;8.20;99.90
21282;DHT22;10800;53.096;18.328;2023-05-14T03:52:40;8.20;99.90
21282;DHT22;10800;53.096;18.328;2023-05-14T03:57:46;8.30;99.90
21282;DHT22;10800;53.096;18.328;2023-05-14T04:02:51;8.50;99.90
21282;DHT22;10800;53.096;18.328;2023-05-14T04:07:57;8.60;99.90
21282;DHT22;10800;53.096;18.328;2023-05-14T04:13:02;8.80;99.90
21282;DHT22;10800;53.096;18.328;2023-05-14T04:18:07;9.00;99.90
21282;DHT22;10800;53.096;18.328;2023-05-14T04:23:12;9.20;99.90
21282;DHT22;10800;53.096;18.328;2023-05-14T04:28:17;9.50;99.90
21282;DHT22;10800;53.096;18.328;2023-05-14T04:33:23;9.70;99.90
21282;DHT22;10800;53.096;18.328;2023-05-14T04:38:28;10.00;99.90
21282;DHT22;10800;53.096;18.328;2023-05-14T04:43:35;10.20;99.90
21282;DHT22;10800;53.096;18.328;2023-05-14T04:48:40;10.50;99.90
21282;DHT22;10800;53.096;18.328;2023-05-14T04:53:47;10.80;99.90
21282;DHT22;10800;53.096;18.328;2023-05-14T04:58:52;11.00;99.90
21282;DHT22;10800;53.096;18.328;2023-05-14T05:03:57;11.40;99.90
21282;DHT22;10800;53.096;18.328;2023-05-14T05:09:02;11.80;99.90
21282;DHT22;10800;53.096;18.328;2023-05-14T05:14:07;12.10;99.90
21282;DHT22;10800;53.096;18.328;2023-05-14T05:19:13;12.50;99.90
21282;DHT22;10800;53.096;18.328;2023-05-14T05:24:18;13.20;99.90
21282;DHT22;10800;53.096;18.328;2023-05-14T05:29:24;13.80;99.90
21282;DHT22;10800;53.096;18.328;2023-05-14T05:34:30;14.70;99.90
21282;DHT22;10800;53.096;18.328;2023-05-14T05:39:35;15.40;99.90
21282;DHT22;10800;53.096;18.328;2023-05-14T05:44:40;16.20;97.10
21282;DHT22;10800;53.096;18.328;2023-05-14T05:49:46;17.00;95.70
21282;DHT22;10800;53.096;18.328;2023-05-14T05:54:51;17.60;92.40
21282;DHT22;10800;53.096;18.328;2023-05-14T05:59:57;18.30;90.80
21282;DHT22;10800;53.096;18.328;2023-05-14T06:05:02;18.70;86.60
21282;DHT22;10800;53.096;18.328;2023-05-14T06:10:07;19.40;82.40
21282;DHT22;10800;53.096;18.328;2023-05-14T06:15:13;19.70;76.90
21282;DHT22;10800;53.096;18.328;2023-05-14T06:20:18;20.40;76.80
21282;DHT22;10800;53.096;18.328;2023-05-14T06:25:26;20.90;75.30
21282;DHT22;10800;53.096;18.328;2023-05-14T06:30:31;21.60;71.60
21282;DHT22;10800;53.096;18.328;2023-05-14T06:35:37;21.50;71.10
21282;DHT22;10800;53.096;18.328;2023-05-14T06:40:43;21.60;71.70
21282;DHT22;10800;53.096;18.328;2023-05-14T06:45:51;21.50;66.10
21282;DHT22;10800;53.096;18.328;2023-05-14T06:50:58;21.60;68.00
21282;DHT22;10800;53.096;18.328;2023-05-14T06:56:03;22.10;65.90
21282;DHT22;10800;53.096;18.328;2023-05-14T07:01:08;22.10;64.90
21282;DHT22;10800;53.096;18.328;2023-05-14T07:06:13;21.30;67.60
21282;DHT22;10800;53.096;18.328;2023-05-14T07:11:23;22.40;64.70
21282;DHT22;10800;53.096;18.328;2023-05-14T07:16:29;23.60;61.00
21282;DHT22;10800;53.096;18.328;2023-05-14T07:21:35;23.70;57.00
21282;DHT22;10800;53.096;18.328;2023-05-14T07:26:40;24.30;56.60
21282;DHT22;10800;53.096;18.328;2023-05-14T07:31:45;24.80;54.40
21282;DHT22;10800;53.096;18.328;2023-05-14T07:36:51;25.60;54.10
21282;DHT22;10800;53.096;18.328;2023-05-14T07:41:56;25.00;50.80
21282;DHT22;10800;53.096;18.328;2023-05-14T07:47:03;25.40;50.40
21282;DHT22;10800;53.096;18.328;2023-05-14T07:52:10;25.70;49.00
21282;DHT22;10800;53.096;18.328;2023-05-14T07:57:16;25.90;49.50
21282;DHT22;10800;53.096;18.328;2023-05-14T08:02:21;26.00;45.80
21282;DHT22;10800;53.096;18.328;2023-05-14T08:07:27;26.60;47.80
21282;DHT22;10800;53.096;18.328;2023-05-14T08:12:33;26.30;46.10
21282;DHT22;10800;53.096;18.328;2023-05-14T08:17:42;26.70;45.20
21282;DHT22;10800;53.096;18.328;2023-05-14T08:22:47;26.70;43.40
21282;DHT22;10800;53.096;18.328;2023-05-14T08:27:52;27.50;44.20
21282;DHT22;10800;53.096;18.328;2023-05-14T08:32:58;27.60;43.50
21282;DHT22;10800;53.096;18.328;2023-05-14T08:38:04;28.00;41.20
21282;DHT22;10800;53.096;18.328;2023-05-14T08:43:11;27.20;42.50
21282;DHT22;10800;53.096;18.328;2023-05-14T08:48:18;26.70;43.80
21282;DHT22;10800;53.096;18.328;2023-05-14T08:53:26;26.40;41.50
21282;DHT22;10800;53.096;18.328;2023-05-14T08:58:31;26.30;41.00
21282;DHT22;10800;53.096;18.328;2023-05-14T09:03:37;26.70;39.30
21282;DHT22;10800;53.096;18.328;2023-05-14T09:08:45;26.20;40.10
21282;DHT22;10800;53.096;18.328;2023-05-14T09:13:50;26.90;38.70
21282;DHT22;10800;53.096;18.328;2023-05-14T09:18:55;27.30;37.20
21282;DHT22;10800;53.096;18.328;2023-05-14T09:24:01;25.30;38.60
21282;DHT22;10800;53.096;18.328;2023-05-14T09:29:07;25.20;38.00
21282;DHT22;10800;53.096;18.328;2023-05-14T09:34:22;25.70;39.50
21282;DHT22;10800;53.096;18.328;2023-05-14T09:39:22;26.40;36.70
21282;DHT22;10800;53.096;18.328;2023-05-14T09:44:28;26.70;37.20
21282;DHT22;10800;53.096;18.328;2023-05-14T09:49:35;26.40;36.00
21282;DHT22;10800;53.096;18.328;2023-05-14T09:54:40;26.30;36.10
21282;DHT22;10800;53.096;18.328;2023-05-14T09:59:45;25.90;35.20
21282;DHT22;10800;53.096;18.328;2023-05-14T10:04:53;26.40;36.10
21282;DHT22;10800;53.096;18.328;2023-05-14T10:10:06;26.90;34.60
21282;DHT22;10800;53.096;18.328;2023-05-14T10:15:19;24.60;37.10
21282;DHT22;10800;53.096;18.328;2023-05-14T10:20:26;25.90;34.80
21282;DHT22;10800;53.096;18.328;2023-05-14T10:25:32;25.80;35.10
21282;DHT22;10800;53.096;18.328;2023-05-14T10:30:44;25.30;36.30
21282;DHT22;10800;53.096;18.328;2023-05-14T10:35:54;26.80;35.00
21282;DHT22;10800;53.096;18.328;2023-05-14T10:41:14;26.20;35.60
21282;DHT22;10800;53.096;18.328;2023-05-14T10:46:31;25.30;35.10
21282;DHT22;10800;53.096;18.328;2023-05-14T10:51:41;25.10;35.20
21282;DHT22;10800;53.096;18.328;2023-05-14T10:57:00;25.40;36.20
21282;DHT22;10800;53.096;18.328;2023-05-14T11:02:26;25.40;35.50
21282;DHT22;10800;53.096;18.328;2023-05-14T11:07:34;25.30;34.80
21282;DHT22;10800;53.096;18.328;2023-05-14T11:12:42;24.40;36.70
21282;DHT22;10800;53.096;18.328;2023-05-14T11:17:49;24.20;36.80
21282;DHT22;10800;53.096;18.328;2023-05-14T11:22:55;24.00;36.80
21282;DHT22;10800;53.096;18.328;2023-05-14T11:28:00;23.80;36.10
21282;DHT22;10800;53.096;18.328;2023-05-14T11:33:05;23.20;37.20
21282;DHT22;10800;53.096;18.328;2023-05-14T11:38:18;22.80;38.10
21282;DHT22;10800;53.096;18.328;2023-05-14T11:43:25;23.20;38.00
21282;DHT22;10800;53.096;18.328;2023-05-14T11:48:34;25.20;36.10
21282;DHT22;10800;53.096;18.328;2023-05-14T11:53:40;25.40;34.90
21282;DHT22;10800;53.096;18.328;2023-05-14T11:58:55;24.30;35.50
21282;DHT22;10800;53.096;18.328;2023-05-14T12:04:03;24.20;36.50
21282;DHT22;10800;53.096;18.328;2023-05-14T12:09:11;24.30;36.70
21282;DHT22;10800;53.096;18.328;2023-05-14T12:14:25;24.20;35.10
21282;DHT22;10800;53.096;18.328;2023-05-14T12:19:26;23.50;37.00
21282;DHT22;10800;53.096;18.328;2023-05-14T12:24:32;23.20;37.30
21282;DHT22;10800;53.096;18.328;2023-05-14T12:29:37;23.50;36.50
21282;DHT22;10800;53.096;18.328;2023-05-14T12:34:43;23.20;37.40
21282;DHT22;10800;53.096;18.328;2023-05-14T12:39:48;23.20;38.30
21282;DHT22;10800;53.096;18.328;2023-05-14T12:44:53;23.20;38.20
21282;DHT22;10800;53.096;18.328;2023-05-14T12:49:59;23.70;38.30
21282;DHT22;10800;53.096;18.328;2023-05-14T12:55:08;23.80;37.40
21282;DHT22;10800;53.096;18.328;2023-05-14T13:00:14;23.90;37.30
21282;DHT22;10800;53.096;18.328;2023-05-14T13:05:20;23.40;37.90
21282;DHT22;10800;53.096;18.328;2023-05-14T13:10:26;23.60;37.60
21282;DHT22;10800;53.096;18.328;2023-05-14T13:15:31;23.10;37.60
21282;DHT22;10800;53.096;18.328;2023-05-14T13:20:43;22.90;38.50
21282;DHT22;10800;53.096;18.328;2023-05-14T13:25:46;23.00;39.10
21282;DHT22;10800;53.096;18.328;2023-05-14T13:31:08;23.00;38.90
21282;DHT22;10800;53.096;18.328;2023-05-14T13:36:14;23.40;39.10
21282;DHT22;10800;53.096;18.328;2023-05-14T13:41:19;23.20;39.00
21282;DHT22;10800;53.096;18.328;2023-05-14T13:46:25;23.50;39.70
21282;DHT22;10800;53.096;18.328;2023-05-14T13:51:31;23.50;38.70
21282;DHT22;10800;53.096;18.328;2023-05-14T13:56:36;24.10;38.10
21282;DHT22;10800;53.096;18.328;2023-05-14T14:01:41;24.10;39.60
21282;DHT22;10800;53.096;18.328;2023-05-14T14:06:47;24.20;38.30
21282;DHT22;10800;53.096;18.328;2023-05-14T14:12:01;24.00;37.70
21282;DHT22;10800;53.096;18.328;2023-05-14T14:17:06;24.10;38.50
21282;DHT22;10800;53.096;18.328;2023-05-14T14:22:12;23.60;38.40
21282;DHT22;10800;53.096;18.328;2023-05-14T14:27:21;23.50;38.80
21282;DHT22;10800;53.096;18.328;2023-05-14T14:32:29;23.80;39.50
21282;DHT22;10800;53.096;18.328;2023-05-14T14:37:35;23.90;38.90
21282;DHT22;10800;53.096;18.328;2023-05-14T14:42:40;23.40;38.90
21282;DHT22;10800;53.096;18.328;2023-05-14T14:47:48;23.60;39.00
21282;DHT22;10800;53.096;18.328;2023-05-14T14:52:54;23.60;39.10
21282;DHT22;10800;53.096;18.328;2023-05-14T14:57:59;23.40;39.10
21282;DHT22;10800;53.096;18.328;2023-05-14T15:03:05;23.00;39.60
21282;DHT22;10800;53.096;18.328;2023-05-14T15:08:13;22.60;41.10
21282;DHT22;10800;53.096;18.328;2023-05-14T15:13:18;22.50;40.50
21282;DHT22;10800;53.096;18.328;2023-05-14T15:18:24;22.50;41.30
21282;DHT22;10800;53.096;18.328;2023-05-14T15:23:29;22.50;40.90
21282;DHT22;10800;53.096;18.328;2023-05-14T15:28:34;22.50;41.00
21282;DHT22;10800;53.096;18.328;2023-05-14T15:33:39;22.50;41.40
21282;DHT22;10800;53.096;18.328;2023-05-14T15:38:44;22.80;42.50
21282;DHT22;10800;53.096;18.328;2023-05-14T15:43:50;22.60;42.10
21282;DHT22;10800;53.096;18.328;2023-05-14T15:48:56;22.80;41.50
21282;DHT22;10800;53.096;18.328;2023-05-14T15:54:02;22.80;41.90
21282;DHT22;10800;53.096;18.328;2023-05-14T15:59:07;22.80;41.70
21282;DHT22;10800;53.096;18.328;2023-05-14T16:04:13;22.80;42.00
21282;DHT22;10800;53.096;18.328;2023-05-14T16:09:18;22.60;42.90
21282;DHT22;10800;53.096;18.328;2023-05-14T16:14:23;22.20;43.10
21282;DHT22;10800;53.096;18.328;2023-05-14T16:19:29;22.00;44.00
21282;DHT22;10800;53.096;18.328;2023-05-14T16:24:34;21.80;44.10
21282;DHT22;10800;53.096;18.328;2023-05-14T16:29:40;21.60;44.60
21282;DHT22;10800;53.096;18.328;2023-05-14T16:34:45;21.60;43.50
21282;DHT22;10800;53.096;18.328;2023-05-14T16:39:51;21.60;44.20
21282;DHT22;10800;53.096;18.328;2023-05-14T16:44:57;21.60;44.90
21282;DHT22;10800;53.096;18.328;2023-05-14T16:50:02;21.50;45.00
21282;DHT22;10800;53.096;18.328;2023-05-14T16:55:08;21.40;45.30
21282;DHT22;10800;53.096;18.328;2023-05-14T17:00:14;21.30;46.30
21282;DHT22;10800;53.096;18.328;2023-05-14T17:05:19;21.30;45.90
21282;DHT22;10800;53.096;18.328;2023-05-14T17:10:26;21.20;46.80
21282;DHT22;10800;53.096;18.328;2023-05-14T17:15:31;21.10;46.90
21282;DHT22;10800;53.096;18.328;2023-05-14T17:20:36;21.00;47.20
21282;DHT22;10800;53.096;18.328;2023-05-14T17:25:42;20.80;46.90
21282;DHT22;10800;53.096;18.328;2023-05-14T17:30:47;20.80;47.70
21282;DHT22;10800;53.096;18.328;2023-05-14T17:35:52;20.70;48.60
21282;DHT22;10800;53.096;18.328;2023-05-14T17:40:57;20.60;48.80
21282;DHT22;10800;53.096;18.328;2023-05-14T17:46:03;20.40;49.10
21282;DHT22;10800;53.096;18.328;2023-05-14T17:51:10;20.40;49.70
21282;DHT22;10800;53.096;18.328;2023-05-14T17:56:21;20.30;50.50
21282;DHT22;10800;53.096;18.328;2023-05-14T18:01:27;20.20;50.40
21282;DHT22;10800;53.096;18.328;2023-05-14T18:06:35;20.10;51.30
21282;DHT22;10800;53.096;18.328;2023-05-14T18:11:41;20.00;53.00
21282;DHT22;10800;53.096;18.328;2023-05-14T18:16:46;19.90;54.10
21282;DHT22;10800;53.096;18.328;2023-05-14T18:21:51;19.70;54.80
21282;DHT22;10800;53.096;18.328;2023-05-14T18:26:59;19.60;55.30
21282;DHT22;10800;53.096;18.328;2023-05-14T18:32:04;19.40;56.30
21282;DHT22;10800;53.096;18.328;2023-05-14T18:37:10;19.20;56.80
21282;DHT22;10800;53.096;18.328;2023-05-14T18:42:15;19.10;56.70
21282;DHT22;10800;53.096;18.328;2023-05-14T18:47:22;18.90;57.60
21282;DHT22;10800;53.096;18.328;2023-05-14T18:52:28;18.70;58.80
21282;DHT22;10800;53.096;18.328;2023-05-14T18:57:34;18.60;59.70
21282;DHT22;10800;53.096;18.328;2023-05-14T19:02:40;18.30;61.50
21282;DHT22;10800;53.096;18.328;2023-05-14T19:07:46;18.10;62.20
21282;DHT22;10800;53.096;18.328;2023-05-14T19:12:52;18.00;63.10
21282;DHT22;10800;53.096;18.328;2023-05-14T19:17:58;17.80;64.90
21282;DHT22;10800;53.096;18.328;2023-05-14T19:23:03;17.60;64.70
21282;DHT22;10800;53.096;18.328;2023-05-14T19:28:08;17.40;66.10
21282;DHT22;10800;53.096;18.328;2023-05-14T19:33:14;17.20;67.20
21282;DHT22;10800;53.096;18.328;2023-05-14T19:38:19;17.00;68.50
21282;DHT22;10800;53.096;18.328;2023-05-14T19:43:24;16.90;69.20
21282;DHT22;10800;53.096;18.328;2023-05-14T19:48:31;16.70;69.60
21282;DHT22;10800;53.096;18.328;2023-05-14T19:53:36;16.60;70.80
21282;DHT22;10800;53.096;18.328;2023-05-14T19:58:42;16.30;71.10
21282;DHT22;10800;53.096;18.328;2023-05-14T20:03:48;16.20;73.30
21282;DHT22;10800;53.096;18.328;2023-05-14T20:08:54;16.10;73.00
21282;DHT22;10800;53.096;18.328;2023-05-14T20:13:59;16.00;72.10
21282;DHT22;10800;53.096;18.328;2023-05-14T20:19:06;16.00;73.20
21282;DHT22;10800;53.096;18.328;2023-05-14T20:24:11;16.00;73.70
21282;DHT22;10800;53.096;18.328;2023-05-14T20:29:17;15.90;73.20
21282;DHT22;10800;53.096;18.328;2023-05-14T20:34:22;15.90;73.00
21282;DHT22;10800;53.096;18.328;2023-05-14T20:39:27;15.90;73.80
21282;DHT22;10800;53.096;18.328;2023-05-14T20:44:32;15.90;73.40
21282;DHT22;10800;53.096;18.328;2023-05-14T20:49:37;15.90;72.80
21282;DHT22;10800;53.096;18.328;2023-05-14T20:54:43;15.90;72.80
21282;DHT22;10800;53.096;18.328;2023-05-14T20:59:48;15.70;74.60
21282;DHT22;10800;53.096;18.328;2023-05-14T21:04:54;15.70;74.20
21282;DHT22;10800;53.096;18.328;2023-05-14T21:09:59;15.60;76.70
21282;DHT22;10800;53.096;18.328;2023-05-14T21:15:05;15.50;79.70
21282;DHT22;10800;53.096;18.328;2023-05-14T21:20:11;15.40;83.70
21282;DHT22;10800;53.096;18.328;2023-05-14T21:25:18;15.30;84.40
21282;DHT22;10800;53.096;18.328;2023-05-14T21:30:23;15.20;86.90
21282;DHT22;10800;53.096;18.328;2023-05-14T21:35:28;15.00;87.30
21282;DHT22;10800;53.096;18.328;2023-05-14T21:40:34;14.90;88.90
21282;DHT22;10800;53.096;18.328;2023-05-14T21:45:41;14.80;90.20
21282;DHT22;10800;53.096;18.328;2023-05-14T21:50:47;14.70;91.70
21282;DHT22;10800;53.096;18.328;2023-05-14T21:55:52;14.60;92.80
21282;DHT22;10800;53.096;18.328;2023-05-14T22:00:58;14.50;93.40
21282;DHT22;10800;53.096;18.328;2023-05-14T22:06:04;14.50;93.00
21282;DHT22;10800;53.096;18.328;2023-05-14T22:11:09;14.50;92.70
21282;DHT22;10800;53.096;18.328;2023-05-14T22:16:14;14.50;93.20
21282;DHT22;10800;53.096;18.328;2023-05-14T22:21:19;14.40;93.70
21282;DHT22;10800;53.096;18.328;2023-05-14T22:26:25;14.30;94.50
21282;DHT22;10800;53.096;18.328;2023-05-14T22:31:30;14.20;95.50
21282;DHT22;10800;53.096;18.328;2023-05-14T22:36:35;14.10;96.60
21282;DHT22;10800;53.096;18.328;2023-05-14T22:41:41;14.00;96.80
21282;DHT22;10800;53.096;18.328;2023-05-14T22:46:46;14.00;98.50
21282;DHT22;10800;53.096;18.328;2023-05-14T22:51:52;13.90;99.50
21282;DHT22;10800;53.096;18.328;2023-05-14T22:56:57;13.80;99.90
21282;DHT22;10800;53.096;18.328;2023-05-14T23:02:03;13.70;99.90
21282;DHT22;10800;53.096;18.328;2023-05-14T23:07:10;13.60;99.90
21282;DHT22;10800;53.096;18.328;2023-05-14T23:12:15;13.60;99.90
21282;DHT22;10800;53.096;18.328;2023-05-14T23:17:22;13.50;99.90
21282;DHT22;10800;53.096;18.328;2023-05-14T23:22:27;13.40;99.90
21282;DHT22;10800;53.096;18.328;2023-05-14T23:27:33;13.30;99.90
21282;DHT22;10800;53.096;18.328;2023-05-14T23:32:38;13.30;99.90
21282;DHT22;10800;53.096;18.328;2023-05-14T23:37:44;13.30;99.90
21282;DHT22;10800;53.096;18.328;2023-05-14T23:42:50;13.30;99.90
21282;DHT22;10800;53.096;18.328;2023-05-14T23:48:00;13.40;99.90
21282;DHT22;10800;53.096;18.328;2023-05-14T23:53:05;13.40;99.90
21282;DHT22;10800;53.096;18.328;2023-05-14T23:58:11;13.50;99.90
